Afton, CA

2:04 AM PST on December 19, 2014 (GMT -0800)
The Ranch | Change Station
CLOSE
Current Station
Personal Weather Station
Location: Live Oak, CA
Elevation: 79 ft
Nearby Weather Stations

Elev 79 ft 39.30 °N, 121.83 °W | Updated 0 second ago

Overcast
Overcast
53.2 °F
Feels Like 53.2 °F
N
4.9
Wind Variable Wind from East
Gusts 8.0 mph

Today
High -- | Low -- °F
--% Chance of Precip.
Yesterday
High -- | Low -- °F
Precip. -- in
7:23 AM 4:46 PM
Waning Crescent, 9% visible
Pressure 30.18 in
Visibility 10.0 miles
Clouds Mostly Cloudy 4500 ft
Overcast 5500 ft
Dew Point 50 °F
Humidity 90%
Rainfall 0.00 in
Snow Depth Not available.
UV 0 out of 12
Pollen 1.80 out of 12
Air Quality Not available.
Flu Activity Not available.
METAR KOVE 190953Z AUTO 10007KT 10SM -RA BKN045 OVC055 11/09 A3017 RMK AO2 SLP219 P0002 T01110089

More Conditions Fewer Conditions

Pressure 30.18 in
Visibility 10.0 miles
Clouds Mostly Cloudy 4500 ft
Overcast 5500 ft
Dew Point 50 °F
Humidity 90%
Rainfall 0.00 in
Snow Depth Not available.
UV 0 out of 12
Pollen 1.80 out of 12
Air Quality Not available.
Flu Activity Not available.
METAR KOVE 190953Z AUTO 10007KT 10SM -RA BKN045 OVC055 11/09 A3017 RMK AO2 SLP219 P0002 T01110089

More Conditions Fewer Conditions

10-Day Weather Forecast

Almanac

Astronomy

Dec. 19, 2014 Rise Set
Actual Time
Civil Twilight
Nautical Twilight
Astronomical Twilight
Moon
Length of Visible Light
Length of Day
Tomorrow will be .
, % of the Moon is Illuminated

Today's Extremes

State Highs State Lows

Community

WunderPhotos

Upload Photos

1,778,966 photos uploaded!

WunderBlogs® & News

Nearby

Air Quality

  Air Quality AQ Index Pollutant
Not available.

Snow Depth

Station Depth Elevation

Earthquake Activity

City Distance Mag. Time & Date
Minimum magnitude displayed is 2.5.

Coastal Water Temperatures

Place Temperature

Nearby Weather Stations